Aviation Digital Data Service (ADDS)

Output produced by METARs form (1918 UTC 09 December 2018)
found at http://www.aviationweather.gov/metar/data/
 
GUCY 091900Z 27006KT 9999 FEW015 SCT110 29/24 Q1013 NOSIG
TAF GUCY 091700Z 0918/1024 29006KT 5000 HZ FEW015 SCT110 
     TEMPO 1000/1006 VRB02KT 3000 BR BKN110